sensor_id;sensor_type;location;lat;lon;timestamp;P1;durP1;ratioP1;P2;durP2;ratioP2
52456;SDS011;38369;52.840;7.082;2023-12-20T00:01:35;13.82;;;2.90;;
52456;SDS011;38369;52.840;7.082;2023-12-20T00:04:01;9.77;;;2.55;;
52456;SDS011;38369;52.840;7.082;2023-12-20T00:06:27;11.30;;;2.58;;
52456;SDS011;38369;52.840;7.082;2023-12-20T00:08:53;16.58;;;2.72;;
52456;SDS011;38369;52.840;7.082;2023-12-20T00:11:19;19.20;;;2.75;;
52456;SDS011;38369;52.840;7.082;2023-12-20T00:13:45;17.40;;;3.13;;
52456;SDS011;38369;52.840;7.082;2023-12-20T00:16:11;16.98;;;2.70;;
52456;SDS011;38369;52.840;7.082;2023-12-20T00:18:37;10.30;;;2.72;;
52456;SDS011;38369;52.840;7.082;2023-12-20T00:21:03;18.45;;;2.65;;
52456;SDS011;38369;52.840;7.082;2023-12-20T00:23:29;12.98;;;2.85;;
52456;SDS011;38369;52.840;7.082;2023-12-20T00:25:55;11.20;;;2.53;;
52456;SDS011;38369;52.840;7.082;2023-12-20T00:28:21;11.30;;;2.78;;
52456;SDS011;38369;52.840;7.082;2023-12-20T00:30:48;13.98;;;2.83;;
52456;SDS011;38369;52.840;7.082;2023-12-20T00:33:13;10.88;;;2.95;;
52456;SDS011;38369;52.840;7.082;2023-12-20T00:35:39;12.65;;;2.92;;
52456;SDS011;38369;52.840;7.082;2023-12-20T00:38:06;11.45;;;2.58;;
52456;SDS011;38369;52.840;7.082;2023-12-20T00:40:33;12.50;;;2.50;;
52456;SDS011;38369;52.840;7.082;2023-12-20T00:42:59;11.23;;;2.65;;
52456;SDS011;38369;52.840;7.082;2023-12-20T00:45:26;11.57;;;3.13;;
52456;SDS011;38369;52.840;7.082;2023-12-20T00:47:51;15.65;;;2.67;;
52456;SDS011;38369;52.840;7.082;2023-12-20T00:50:17;18.00;;;3.03;;
52456;SDS011;38369;52.840;7.082;2023-12-20T00:52:43;16.80;;;3.33;;
52456;SDS011;38369;52.840;7.082;2023-12-20T00:55:09;15.32;;;3.05;;
52456;SDS011;38369;52.840;7.082;2023-12-20T00:57:35;18.33;;;3.30;;
52456;SDS011;38369;52.840;7.082;2023-12-20T01:00:01;12.18;;;2.97;;
52456;SDS011;38369;52.840;7.082;2023-12-20T01:02:27;17.27;;;3.03;;
52456;SDS011;38369;52.840;7.082;2023-12-20T01:04:54;18.13;;;3.00;;
52456;SDS011;38369;52.840;7.082;2023-12-20T01:07:20;17.08;;;4.30;;
52456;SDS011;38369;52.840;7.082;2023-12-20T01:09:46;10.27;;;2.60;;
52456;SDS011;38369;52.840;7.082;2023-12-20T01:12:12;23.30;;;3.42;;
52456;SDS011;38369;52.840;7.082;2023-12-20T01:14:38;14.68;;;4.20;;
52456;SDS011;38369;52.840;7.082;2023-12-20T01:17:04;13.98;;;3.35;;
52456;SDS011;38369;52.840;7.082;2023-12-20T01:19:30;15.90;;;3.70;;
52456;SDS011;38369;52.840;7.082;2023-12-20T01:21:56;15.40;;;3.47;;
52456;SDS011;38369;52.840;7.082;2023-12-20T01:24:22;10.57;;;2.55;;
52456;SDS011;38369;52.840;7.082;2023-12-20T01:26:48;16.40;;;3.95;;
52456;SDS011;38369;52.840;7.082;2023-12-20T01:29:14;20.83;;;3.13;;
52456;SDS011;38369;52.840;7.082;2023-12-20T01:31:41;11.98;;;3.78;;
52456;SDS011;38369;52.840;7.082;2023-12-20T01:34:07;16.80;;;3.60;;
52456;SDS011;38369;52.840;7.082;2023-12-20T01:36:33;21.52;;;3.17;;
52456;SDS011;38369;52.840;7.082;2023-12-20T01:38:59;13.88;;;3.28;;
52456;SDS011;38369;52.840;7.082;2023-12-20T01:41:25;15.48;;;4.75;;
52456;SDS011;38369;52.840;7.082;2023-12-20T01:43:50;10.50;;;3.35;;
52456;SDS011;38369;52.840;7.082;2023-12-20T01:46:18;16.52;;;3.05;;
52456;SDS011;38369;52.840;7.082;2023-12-20T01:48:44;22.75;;;3.83;;
52456;SDS011;38369;52.840;7.082;2023-12-20T01:51:10;12.65;;;3.50;;
52456;SDS011;38369;52.840;7.082;2023-12-20T01:53:36;21.15;;;3.58;;
52456;SDS011;38369;52.840;7.082;2023-12-20T01:56:03;18.33;;;3.85;;
52456;SDS011;38369;52.840;7.082;2023-12-20T01:58:30;22.17;;;4.03;;
52456;SDS011;38369;52.840;7.082;2023-12-20T02:00:56;18.05;;;3.63;;
52456;SDS011;38369;52.840;7.082;2023-12-20T02:03:23;12.77;;;3.20;;
52456;SDS011;38369;52.840;7.082;2023-12-20T02:05:49;15.43;;;4.65;;
52456;SDS011;38369;52.840;7.082;2023-12-20T02:08:16;10.65;;;3.00;;
52456;SDS011;38369;52.840;7.082;2023-12-20T02:10:42;19.23;;;4.70;;
52456;SDS011;38369;52.840;7.082;2023-12-20T02:13:08;20.48;;;4.50;;
52456;SDS011;38369;52.840;7.082;2023-12-20T02:15:34;18.65;;;4.00;;
52456;SDS011;38369;52.840;7.082;2023-12-20T02:18:02;15.18;;;4.13;;
52456;SDS011;38369;52.840;7.082;2023-12-20T02:20:28;17.85;;;3.58;;
52456;SDS011;38369;52.840;7.082;2023-12-20T02:22:54;18.70;;;4.15;;
52456;SDS011;38369;52.840;7.082;2023-12-20T02:25:20;14.90;;;3.08;;
52456;SDS011;38369;52.840;7.082;2023-12-20T02:27:46;18.42;;;3.85;;
52456;SDS011;38369;52.840;7.082;2023-12-20T02:30:14;18.55;;;3.50;;
52456;SDS011;38369;52.840;7.082;2023-12-20T02:32:40;17.65;;;4.25;;
52456;SDS011;38369;52.840;7.082;2023-12-20T02:35:06;22.27;;;4.85;;
52456;SDS011;38369;52.840;7.082;2023-12-20T02:37:33;22.02;;;4.00;;
52456;SDS011;38369;52.840;7.082;2023-12-20T02:39:59;18.40;;;4.07;;
52456;SDS011;38369;52.840;7.082;2023-12-20T02:42:25;19.65;;;3.75;;
52456;SDS011;38369;52.840;7.082;2023-12-20T02:44:51;21.05;;;4.57;;
52456;SDS011;38369;52.840;7.082;2023-12-20T02:47:17;16.58;;;3.70;;
52456;SDS011;38369;52.840;7.082;2023-12-20T02:49:43;20.40;;;5.07;;
52456;SDS011;38369;52.840;7.082;2023-12-20T02:52:09;19.33;;;4.10;;
52456;SDS011;38369;52.840;7.082;2023-12-20T02:54:35;14.82;;;3.42;;
52456;SDS011;38369;52.840;7.082;2023-12-20T02:57:01;21.23;;;3.63;;
52456;SDS011;38369;52.840;7.082;2023-12-20T02:59:27;20.80;;;5.07;;
52456;SDS011;38369;52.840;7.082;2023-12-20T03:01:53;20.50;;;4.18;;
52456;SDS011;38369;52.840;7.082;2023-12-20T03:04:19;16.65;;;3.70;;
52456;SDS011;38369;52.840;7.082;2023-12-20T03:06:45;16.73;;;4.15;;
52456;SDS011;38369;52.840;7.082;2023-12-20T03:09:11;19.45;;;4.43;;
52456;SDS011;38369;52.840;7.082;2023-12-20T03:11:37;20.48;;;4.03;;
52456;SDS011;38369;52.840;7.082;2023-12-20T03:14:03;17.10;;;3.97;;
52456;SDS011;38369;52.840;7.082;2023-12-20T03:16:29;17.17;;;3.70;;
52456;SDS011;38369;52.840;7.082;2023-12-20T03:18:56;22.80;;;4.00;;
52456;SDS011;38369;52.840;7.082;2023-12-20T03:21:22;13.23;;;3.60;;
52456;SDS011;38369;52.840;7.082;2023-12-20T03:23:48;25.33;;;4.72;;
52456;SDS011;38369;52.840;7.082;2023-12-20T03:26:14;17.17;;;3.70;;
52456;SDS011;38369;52.840;7.082;2023-12-20T03:28:40;16.60;;;3.45;;
52456;SDS011;38369;52.840;7.082;2023-12-20T03:31:06;18.40;;;4.45;;
52456;SDS011;38369;52.840;7.082;2023-12-20T03:33:32;22.13;;;5.47;;
52456;SDS011;38369;52.840;7.082;2023-12-20T03:35:58;21.25;;;3.63;;
52456;SDS011;38369;52.840;7.082;2023-12-20T03:38:24;18.35;;;4.38;;
52456;SDS011;38369;52.840;7.082;2023-12-20T03:40:50;17.92;;;4.38;;
52456;SDS011;38369;52.840;7.082;2023-12-20T03:43:16;23.98;;;4.43;;
52456;SDS011;38369;52.840;7.082;2023-12-20T03:45:42;20.88;;;4.18;;
52456;SDS011;38369;52.840;7.082;2023-12-20T03:48:08;18.52;;;4.15;;
52456;SDS011;38369;52.840;7.082;2023-12-20T03:50:35;17.98;;;3.63;;
52456;SDS011;38369;52.840;7.082;2023-12-20T03:53:01;20.50;;;4.57;;
52456;SDS011;38369;52.840;7.082;2023-12-20T03:55:27;20.52;;;4.10;;
52456;SDS011;38369;52.840;7.082;2023-12-20T03:57:53;16.85;;;3.55;;
52456;SDS011;38369;52.840;7.082;2023-12-20T04:00:19;22.90;;;4.95;;
52456;SDS011;38369;52.840;7.082;2023-12-20T04:02:45;24.15;;;5.38;;
52456;SDS011;38369;52.840;7.082;2023-12-20T04:05:11;27.05;;;4.97;;
52456;SDS011;38369;52.840;7.082;2023-12-20T04:07:37;12.60;;;3.75;;
52456;SDS011;38369;52.840;7.082;2023-12-20T04:10:04;21.73;;;5.20;;
52456;SDS011;38369;52.840;7.082;2023-12-20T04:12:30;21.92;;;5.13;;
52456;SDS011;38369;52.840;7.082;2023-12-20T04:14:56;34.10;;;4.68;;
52456;SDS011;38369;52.840;7.082;2023-12-20T04:17:22;27.90;;;5.22;;
52456;SDS011;38369;52.840;7.082;2023-12-20T04:19:49;17.50;;;4.72;;
52456;SDS011;38369;52.840;7.082;2023-12-20T04:22:15;28.17;;;4.90;;
52456;SDS011;38369;52.840;7.082;2023-12-20T04:24:41;25.45;;;5.20;;
52456;SDS011;38369;52.840;7.082;2023-12-20T04:27:07;25.17;;;6.50;;
52456;SDS011;38369;52.840;7.082;2023-12-20T04:29:33;23.80;;;4.95;;
52456;SDS011;38369;52.840;7.082;2023-12-20T04:31:59;23.95;;;5.38;;
52456;SDS011;38369;52.840;7.082;2023-12-20T04:34:25;24.13;;;5.80;;
52456;SDS011;38369;52.840;7.082;2023-12-20T04:36:52;25.65;;;5.60;;
52456;SDS011;38369;52.840;7.082;2023-12-20T04:39:18;28.27;;;8.45;;
52456;SDS011;38369;52.840;7.082;2023-12-20T04:41:44;32.63;;;6.05;;
52456;SDS011;38369;52.840;7.082;2023-12-20T04:44:10;29.13;;;7.20;;
52456;SDS011;38369;52.840;7.082;2023-12-20T04:46:36;26.58;;;5.32;;
52456;SDS011;38369;52.840;7.082;2023-12-20T04:49:02;28.88;;;5.97;;
52456;SDS011;38369;52.840;7.082;2023-12-20T04:51:28;39.92;;;6.25;;
52456;SDS011;38369;52.840;7.082;2023-12-20T04:53:54;44.92;;;7.57;;
52456;SDS011;38369;52.840;7.082;2023-12-20T04:56:19;19.38;;;4.55;;
52456;SDS011;38369;52.840;7.082;2023-12-20T04:58:45;22.77;;;5.78;;
52456;SDS011;38369;52.840;7.082;2023-12-20T05:01:12;29.42;;;5.47;;
52456;SDS011;38369;52.840;7.082;2023-12-20T05:03:38;31.15;;;5.38;;
52456;SDS011;38369;52.840;7.082;2023-12-20T05:06:04;30.27;;;6.97;;
52456;SDS011;38369;52.840;7.082;2023-12-20T05:08:30;26.25;;;5.97;;
52456;SDS011;38369;52.840;7.082;2023-12-20T05:10:56;27.33;;;6.35;;
52456;SDS011;38369;52.840;7.082;2023-12-20T05:13:22;39.78;;;6.53;;
52456;SDS011;38369;52.840;7.082;2023-12-20T05:15:48;27.60;;;5.65;;
52456;SDS011;38369;52.840;7.082;2023-12-20T05:18:14;32.75;;;6.25;;
52456;SDS011;38369;52.840;7.082;2023-12-20T05:20:40;50.20;;;9.48;;
52456;SDS011;38369;52.840;7.082;2023-12-20T05:23:06;34.53;;;6.38;;
52456;SDS011;38369;52.840;7.082;2023-12-20T05:25:32;26.65;;;6.03;;
52456;SDS011;38369;52.840;7.082;2023-12-20T05:27:58;26.25;;;6.00;;
52456;SDS011;38369;52.840;7.082;2023-12-20T05:30:24;24.10;;;6.55;;
52456;SDS011;38369;52.840;7.082;2023-12-20T05:32:50;33.22;;;6.95;;
52456;SDS011;38369;52.840;7.082;2023-12-20T05:35:16;26.67;;;5.75;;
52456;SDS011;38369;52.840;7.082;2023-12-20T05:37:42;28.48;;;7.57;;
52456;SDS011;38369;52.840;7.082;2023-12-20T05:40:08;23.95;;;5.70;;
52456;SDS011;38369;52.840;7.082;2023-12-20T05:42:35;32.88;;;5.75;;
52456;SDS011;38369;52.840;7.082;2023-12-20T05:45:02;37.05;;;7.35;;
52456;SDS011;38369;52.840;7.082;2023-12-20T05:47:28;35.47;;;6.28;;
52456;SDS011;38369;52.840;7.082;2023-12-20T05:49:54;21.77;;;5.68;;
52456;SDS011;38369;52.840;7.082;2023-12-20T05:52:20;31.38;;;6.25;;
52456;SDS011;38369;52.840;7.082;2023-12-20T05:54:45;34.05;;;6.78;;
52456;SDS011;38369;52.840;7.082;2023-12-20T05:57:12;30.70;;;6.15;;
52456;SDS011;38369;52.840;7.082;2023-12-20T05:59:38;28.00;;;6.40;;
52456;SDS011;38369;52.840;7.082;2023-12-20T06:02:04;27.45;;;5.70;;
52456;SDS011;38369;52.840;7.082;2023-12-20T06:04:30;30.42;;;5.60;;
52456;SDS011;38369;52.840;7.082;2023-12-20T06:06:56;24.33;;;6.07;;
52456;SDS011;38369;52.840;7.082;2023-12-20T06:09:22;29.40;;;5.63;;
52456;SDS011;38369;52.840;7.082;2023-12-20T06:11:49;31.80;;;5.80;;
52456;SDS011;38369;52.840;7.082;2023-12-20T06:14:16;17.27;;;4.95;;
52456;SDS011;38369;52.840;7.082;2023-12-20T06:16:42;30.58;;;5.90;;
52456;SDS011;38369;52.840;7.082;2023-12-20T06:19:08;29.15;;;6.90;;
52456;SDS011;38369;52.840;7.082;2023-12-20T06:21:34;24.02;;;5.80;;
52456;SDS011;38369;52.840;7.082;2023-12-20T06:24:00;34.67;;;6.15;;
52456;SDS011;38369;52.840;7.082;2023-12-20T06:26:26;26.83;;;5.93;;
52456;SDS011;38369;52.840;7.082;2023-12-20T06:28:52;29.60;;;5.82;;
52456;SDS011;38369;52.840;7.082;2023-12-20T06:31:18;28.20;;;6.00;;
52456;SDS011;38369;52.840;7.082;2023-12-20T06:33:44;30.75;;;6.00;;
52456;SDS011;38369;52.840;7.082;2023-12-20T06:36:11;32.70;;;5.93;;
52456;SDS011;38369;52.840;7.082;2023-12-20T06:38:38;26.05;;;6.25;;
52456;SDS011;38369;52.840;7.082;2023-12-20T06:41:04;22.08;;;6.35;;
52456;SDS011;38369;52.840;7.082;2023-12-20T06:43:30;35.08;;;6.25;;
52456;SDS011;38369;52.840;7.082;2023-12-20T06:45:57;26.52;;;6.57;;
52456;SDS011;38369;52.840;7.082;2023-12-20T06:48:23;33.90;;;5.20;;
52456;SDS011;38369;52.840;7.082;2023-12-20T06:50:49;26.10;;;6.90;;
52456;SDS011;38369;52.840;7.082;2023-12-20T06:53:15;22.83;;;5.75;;
52456;SDS011;38369;52.840;7.082;2023-12-20T06:55:41;35.53;;;6.15;;
52456;SDS011;38369;52.840;7.082;2023-12-20T06:58:07;20.85;;;5.68;;
52456;SDS011;38369;52.840;7.082;2023-12-20T07:00:34;26.13;;;5.43;;
52456;SDS011;38369;52.840;7.082;2023-12-20T07:03:00;34.95;;;6.93;;
52456;SDS011;38369;52.840;7.082;2023-12-20T07:05:26;30.83;;;6.22;;
52456;SDS011;38369;52.840;7.082;2023-12-20T07:07:52;29.73;;;6.13;;
52456;SDS011;38369;52.840;7.082;2023-12-20T07:10:18;26.05;;;6.32;;
52456;SDS011;38369;52.840;7.082;2023-12-20T07:12:44;19.75;;;4.70;;
52456;SDS011;38369;52.840;7.082;2023-12-20T07:15:11;25.13;;;5.28;;
52456;SDS011;38369;52.840;7.082;2023-12-20T07:17:37;35.35;;;6.55;;
52456;SDS011;38369;52.840;7.082;2023-12-20T07:20:03;25.73;;;6.18;;
52456;SDS011;38369;52.840;7.082;2023-12-20T07:22:30;24.45;;;5.60;;
52456;SDS011;38369;52.840;7.082;2023-12-20T07:24:59;32.78;;;6.00;;
52456;SDS011;38369;52.840;7.082;2023-12-20T07:27:25;21.30;;;5.63;;
52456;SDS011;38369;52.840;7.082;2023-12-20T07:29:51;28.77;;;5.70;;
52456;SDS011;38369;52.840;7.082;2023-12-20T07:32:17;36.72;;;6.60;;
52456;SDS011;38369;52.840;7.082;2023-12-20T07:34:43;29.73;;;5.53;;
52456;SDS011;38369;52.840;7.082;2023-12-20T07:37:10;18.90;;;4.68;;
52456;SDS011;38369;52.840;7.082;2023-12-20T07:39:39;22.75;;;5.53;;
52456;SDS011;38369;52.840;7.082;2023-12-20T07:42:06;32.40;;;5.03;;
52456;SDS011;38369;52.840;7.082;2023-12-20T07:44:32;31.10;;;6.38;;
52456;SDS011;38369;52.840;7.082;2023-12-20T07:46:58;31.75;;;6.05;;
52456;SDS011;38369;52.840;7.082;2023-12-20T07:49:24;27.63;;;6.18;;
52456;SDS011;38369;52.840;7.082;2023-12-20T07:51:50;27.38;;;5.82;;
52456;SDS011;38369;52.840;7.082;2023-12-20T07:54:16;27.05;;;5.78;;
52456;SDS011;38369;52.840;7.082;2023-12-20T07:56:42;28.00;;;4.80;;
52456;SDS011;38369;52.840;7.082;2023-12-20T07:59:08;22.30;;;4.97;;
52456;SDS011;38369;52.840;7.082;2023-12-20T08:01:34;25.17;;;5.70;;
52456;SDS011;38369;52.840;7.082;2023-12-20T08:04:01;29.15;;;6.90;;
52456;SDS011;38369;52.840;7.082;2023-12-20T08:06:27;25.45;;;5.68;;
52456;SDS011;38369;52.840;7.082;2023-12-20T08:08:53;33.10;;;5.53;;
52456;SDS011;38369;52.840;7.082;2023-12-20T08:11:18;27.42;;;6.50;;
52456;SDS011;38369;52.840;7.082;2023-12-20T08:13:44;28.77;;;7.00;;
52456;SDS011;38369;52.840;7.082;2023-12-20T08:16:10;32.08;;;6.60;;
52456;SDS011;38369;52.840;7.082;2023-12-20T08:18:38;31.50;;;6.68;;
52456;SDS011;38369;52.840;7.082;2023-12-20T08:21:04;27.48;;;6.45;;
52456;SDS011;38369;52.840;7.082;2023-12-20T08:23:32;31.15;;;6.95;;
52456;SDS011;38369;52.840;7.082;2023-12-20T08:26:02;28.58;;;5.95;;
52456;SDS011;38369;52.840;7.082;2023-12-20T08:28:28;24.02;;;5.18;;
52456;SDS011;38369;52.840;7.082;2023-12-20T08:30:56;29.20;;;6.35;;
52456;SDS011;38369;52.840;7.082;2023-12-20T08:33:22;31.95;;;5.85;;
52456;SDS011;38369;52.840;7.082;2023-12-20T08:35:48;24.15;;;6.28;;
52456;SDS011;38369;52.840;7.082;2023-12-20T08:38:14;28.63;;;6.25;;
52456;SDS011;38369;52.840;7.082;2023-12-20T08:40:40;28.75;;;5.45;;
52456;SDS011;38369;52.840;7.082;2023-12-20T08:43:06;28.50;;;5.80;;
52456;SDS011;38369;52.840;7.082;2023-12-20T08:45:33;26.80;;;5.53;;
52456;SDS011;38369;52.840;7.082;2023-12-20T08:47:59;26.83;;;5.25;;
52456;SDS011;38369;52.840;7.082;2023-12-20T08:50:25;43.75;;;7.30;;
52456;SDS011;38369;52.840;7.082;2023-12-20T08:52:51;21.73;;;5.38;;
52456;SDS011;38369;52.840;7.082;2023-12-20T08:55:17;23.65;;;6.22;;
52456;SDS011;38369;52.840;7.082;2023-12-20T08:57:43;35.33;;;7.68;;
52456;SDS011;38369;52.840;7.082;2023-12-20T09:00:09;28.90;;;6.25;;
52456;SDS011;38369;52.840;7.082;2023-12-20T09:02:35;20.40;;;6.18;;
52456;SDS011;38369;52.840;7.082;2023-12-20T09:05:02;24.42;;;6.32;;
52456;SDS011;38369;52.840;7.082;2023-12-20T09:07:28;24.35;;;6.05;;
52456;SDS011;38369;52.840;7.082;2023-12-20T09:09:57;26.92;;;5.47;;
52456;SDS011;38369;52.840;7.082;2023-12-20T09:12:24;33.47;;;6.90;;
52456;SDS011;38369;52.840;7.082;2023-12-20T09:14:50;21.90;;;6.63;;
52456;SDS011;38369;52.840;7.082;2023-12-20T09:17:17;26.05;;;5.10;;
52456;SDS011;38369;52.840;7.082;2023-12-20T09:19:43;24.13;;;4.97;;
52456;SDS011;38369;52.840;7.082;2023-12-20T09:22:10;25.63;;;5.40;;
52456;SDS011;38369;52.840;7.082;2023-12-20T09:24:36;19.88;;;5.43;;
52456;SDS011;38369;52.840;7.082;2023-12-20T09:27:02;24.00;;;5.30;;
52456;SDS011;38369;52.840;7.082;2023-12-20T09:29:28;33.70;;;6.32;;
52456;SDS011;38369;52.840;7.082;2023-12-20T09:31:55;21.77;;;6.10;;
52456;SDS011;38369;52.840;7.082;2023-12-20T09:34:22;23.65;;;5.63;;
52456;SDS011;38369;52.840;7.082;2023-12-20T09:36:48;24.35;;;5.30;;
52456;SDS011;38369;52.840;7.082;2023-12-20T09:39:14;35.40;;;6.75;;
52456;SDS011;38369;52.840;7.082;2023-12-20T09:41:43;30.83;;;6.43;;
52456;SDS011;38369;52.840;7.082;2023-12-20T09:44:11;15.98;;;4.07;;
52456;SDS011;38369;52.840;7.082;2023-12-20T09:46:39;24.17;;;5.40;;
52456;SDS011;38369;52.840;7.082;2023-12-20T09:49:06;26.08;;;5.07;;
52456;SDS011;38369;52.840;7.082;2023-12-20T09:51:32;26.52;;;5.18;;
52456;SDS011;38369;52.840;7.082;2023-12-20T09:53:59;23.17;;;5.40;;
52456;SDS011;38369;52.840;7.082;2023-12-20T09:56:26;27.77;;;4.40;;
52456;SDS011;38369;52.840;7.082;2023-12-20T09:58:52;24.23;;;4.63;;
52456;SDS011;38369;52.840;7.082;2023-12-20T10:01:19;11.35;;;2.05;;
52456;SDS011;38369;52.840;7.082;2023-12-20T10:03:45;8.77;;;1.58;;
52456;SDS011;38369;52.840;7.082;2023-12-20T10:06:12;9.57;;;1.50;;
52456;SDS011;38369;52.840;7.082;2023-12-20T10:08:38;5.95;;;1.42;;
52456;SDS011;38369;52.840;7.082;2023-12-20T10:11:04;5.35;;;1.58;;
52456;SDS011;38369;52.840;7.082;2023-12-20T10:13:30;11.55;;;2.58;;
52456;SDS011;38369;52.840;7.082;2023-12-20T10:15:56;6.57;;;1.73;;
52456;SDS011;38369;52.840;7.082;2023-12-20T10:18:22;7.85;;;1.60;;
52456;SDS011;38369;52.840;7.082;2023-12-20T10:20:48;6.28;;;1.80;;
52456;SDS011;38369;52.840;7.082;2023-12-20T10:23:15;6.13;;;1.85;;
52456;SDS011;38369;52.840;7.082;2023-12-20T10:25:42;7.15;;;1.83;;
52456;SDS011;38369;52.840;7.082;2023-12-20T10:28:12;7.57;;;1.50;;
52456;SDS011;38369;52.840;7.082;2023-12-20T10:30:39;6.55;;;1.90;;
52456;SDS011;38369;52.840;7.082;2023-12-20T10:33:05;10.32;;;1.83;;
52456;SDS011;38369;52.840;7.082;2023-12-20T10:35:32;9.85;;;1.92;;
52456;SDS011;38369;52.840;7.082;2023-12-20T10:37:58;5.88;;;1.60;;
52456;SDS011;38369;52.840;7.082;2023-12-20T10:40:28;7.97;;;2.33;;
52456;SDS011;38369;52.840;7.082;2023-12-20T10:42:55;6.80;;;1.63;;
52456;SDS011;38369;52.840;7.082;2023-12-20T10:45:22;5.53;;;1.42;;
52456;SDS011;38369;52.840;7.082;2023-12-20T10:47:48;4.72;;;1.30;;
52456;SDS011;38369;52.840;7.082;2023-12-20T10:50:15;7.25;;;1.50;;
52456;SDS011;38369;52.840;7.082;2023-12-20T10:52:42;7.55;;;1.92;;
52456;SDS011;38369;52.840;7.082;2023-12-20T10:55:08;13.40;;;2.47;;
52456;SDS011;38369;52.840;7.082;2023-12-20T10:57:34;9.10;;;1.60;;
52456;SDS011;38369;52.840;7.082;2023-12-20T11:00:02;8.80;;;2.45;;
52456;SDS011;38369;52.840;7.082;2023-12-20T11:02:32;9.27;;;1.70;;
52456;SDS011;38369;52.840;7.082;2023-12-20T11:07:42;5.07;;;1.98;;
52456;SDS011;38369;52.840;7.082;2023-12-20T11:12:37;12.32;;;1.88;;
52456;SDS011;38369;52.840;7.082;2023-12-20T11:15:05;10.30;;;2.22;;
52456;SDS011;38369;52.840;7.082;2023-12-20T11:17:32;13.50;;;1.98;;
52456;SDS011;38369;52.840;7.082;2023-12-20T11:22:30;5.40;;;1.55;;
52456;SDS011;38369;52.840;7.082;2023-12-20T11:27:34;9.68;;;1.90;;
52456;SDS011;38369;52.840;7.082;2023-12-20T11:30:00;8.13;;;2.35;;
52456;SDS011;38369;52.840;7.082;2023-12-20T11:32:28;7.65;;;2.17;;
52456;SDS011;38369;52.840;7.082;2023-12-20T11:34:55;11.30;;;2.05;;
52456;SDS011;38369;52.840;7.082;2023-12-20T11:37:21;9.20;;;1.70;;
52456;SDS011;38369;52.840;7.082;2023-12-20T11:39:54;11.75;;;2.60;;
52456;SDS011;38369;52.840;7.082;2023-12-20T11:42:21;14.73;;;2.55;;
52456;SDS011;38369;52.840;7.082;2023-12-20T11:44:47;14.38;;;2.13;;
52456;SDS011;38369;52.840;7.082;2023-12-20T11:47:13;7.80;;;1.88;;
52456;SDS011;38369;52.840;7.082;2023-12-20T11:49:40;14.13;;;2.83;;
52456;SDS011;38369;52.840;7.082;2023-12-20T11:52:06;10.13;;;2.00;;
52456;SDS011;38369;52.840;7.082;2023-12-20T11:54:32;14.60;;;2.15;;
52456;SDS011;38369;52.840;7.082;2023-12-20T11:56:58;11.30;;;2.25;;
52456;SDS011;38369;52.840;7.082;2023-12-20T11:59:24;5.80;;;1.88;;
52456;SDS011;38369;52.840;7.082;2023-12-20T12:01:50;11.93;;;2.10;;
52456;SDS011;38369;52.840;7.082;2023-12-20T12:04:17;10.63;;;2.60;;
52456;SDS011;38369;52.840;7.082;2023-12-20T12:06:43;10.07;;;2.58;;
52456;SDS011;38369;52.840;7.082;2023-12-20T12:09:10;12.80;;;2.88;;
52456;SDS011;38369;52.840;7.082;2023-12-20T12:11:36;8.20;;;2.17;;
52456;SDS011;38369;52.840;7.082;2023-12-20T12:14:03;11.18;;;2.13;;
52456;SDS011;38369;52.840;7.082;2023-12-20T12:16:29;12.38;;;3.05;;
52456;SDS011;38369;52.840;7.082;2023-12-20T12:18:55;14.75;;;2.40;;
52456;SDS011;38369;52.840;7.082;2023-12-20T12:21:22;14.55;;;2.30;;
52456;SDS011;38369;52.840;7.082;2023-12-20T12:23:48;8.75;;;2.55;;
52456;SDS011;38369;52.840;7.082;2023-12-20T12:26:14;11.90;;;2.80;;
52456;SDS011;38369;52.840;7.082;2023-12-20T12:28:40;11.43;;;2.70;;
52456;SDS011;38369;52.840;7.082;2023-12-20T12:31:07;16.50;;;2.75;;
52456;SDS011;38369;52.840;7.082;2023-12-20T12:33:33;17.58;;;2.42;;
52456;SDS011;38369;52.840;7.082;2023-12-20T12:36:00;13.27;;;3.10;;
52456;SDS011;38369;52.840;7.082;2023-12-20T12:38:26;15.63;;;2.78;;
52456;SDS011;38369;52.840;7.082;2023-12-20T12:40:54;12.63;;;2.85;;
52456;SDS011;38369;52.840;7.082;2023-12-20T12:43:20;15.55;;;3.10;;
52456;SDS011;38369;52.840;7.082;2023-12-20T12:45:48;11.82;;;2.63;;
52456;SDS011;38369;52.840;7.082;2023-12-20T12:48:14;19.88;;;3.00;;
52456;SDS011;38369;52.840;7.082;2023-12-20T12:50:40;11.25;;;2.92;;
52456;SDS011;38369;52.840;7.082;2023-12-20T12:53:06;12.70;;;2.80;;
52456;SDS011;38369;52.840;7.082;2023-12-20T12:55:32;13.70;;;3.03;;
52456;SDS011;38369;52.840;7.082;2023-12-20T12:57:58;12.05;;;2.60;;
52456;SDS011;38369;52.840;7.082;2023-12-20T13:00:24;17.15;;;3.22;;
52456;SDS011;38369;52.840;7.082;2023-12-20T13:02:51;16.45;;;3.08;;
52456;SDS011;38369;52.840;7.082;2023-12-20T13:05:17;15.80;;;2.97;;
52456;SDS011;38369;52.840;7.082;2023-12-20T13:07:43;15.20;;;2.88;;
52456;SDS011;38369;52.840;7.082;2023-12-20T13:10:10;16.33;;;2.00;;
52456;SDS011;38369;52.840;7.082;2023-12-20T13:12:37;12.48;;;2.75;;
52456;SDS011;38369;52.840;7.082;2023-12-20T13:15:03;11.57;;;2.78;;
52456;SDS011;38369;52.840;7.082;2023-12-20T13:17:29;10.18;;;2.88;;
52456;SDS011;38369;52.840;7.082;2023-12-20T13:19:55;10.85;;;2.10;;
52456;SDS011;38369;52.840;7.082;2023-12-20T13:22:21;19.63;;;3.10;;
52456;SDS011;38369;52.840;7.082;2023-12-20T13:24:47;9.23;;;3.20;;
52456;SDS011;38369;52.840;7.082;2023-12-20T13:27:13;9.60;;;2.13;;
52456;SDS011;38369;52.840;7.082;2023-12-20T13:29:39;16.65;;;3.30;;
52456;SDS011;38369;52.840;7.082;2023-12-20T13:32:05;13.70;;;2.47;;
52456;SDS011;38369;52.840;7.082;2023-12-20T13:34:31;19.65;;;3.33;;
52456;SDS011;38369;52.840;7.082;2023-12-20T13:36:57;8.60;;;2.25;;
52456;SDS011;38369;52.840;7.082;2023-12-20T13:39:24;15.35;;;2.53;;
52456;SDS011;38369;52.840;7.082;2023-12-20T13:41:50;12.07;;;2.50;;
52456;SDS011;38369;52.840;7.082;2023-12-20T13:44:16;17.13;;;3.15;;
52456;SDS011;38369;52.840;7.082;2023-12-20T13:46:42;10.02;;;2.17;;
52456;SDS011;38369;52.840;7.082;2023-12-20T13:49:08;13.20;;;2.65;;
52456;SDS011;38369;52.840;7.082;2023-12-20T13:51:34;12.32;;;2.72;;
52456;SDS011;38369;52.840;7.082;2023-12-20T13:54:00;11.27;;;2.67;;
52456;SDS011;38369;52.840;7.082;2023-12-20T13:56:26;6.82;;;1.75;;
52456;SDS011;38369;52.840;7.082;2023-12-20T13:58:52;15.18;;;2.33;;
52456;SDS011;38369;52.840;7.082;2023-12-20T14:01:18;9.70;;;2.10;;
52456;SDS011;38369;52.840;7.082;2023-12-20T14:03:45;12.38;;;1.83;;
52456;SDS011;38369;52.840;7.082;2023-12-20T14:06:11;11.52;;;2.72;;
52456;SDS011;38369;52.840;7.082;2023-12-20T14:08:37;10.07;;;3.33;;
52456;SDS011;38369;52.840;7.082;2023-12-20T14:11:03;13.73;;;3.00;;
52456;SDS011;38369;52.840;7.082;2023-12-20T14:13:29;13.35;;;2.67;;
52456;SDS011;38369;52.840;7.082;2023-12-20T14:15:56;13.55;;;2.70;;
52456;SDS011;38369;52.840;7.082;2023-12-20T14:18:23;8.40;;;2.70;;
52456;SDS011;38369;52.840;7.082;2023-12-20T14:20:49;10.95;;;2.42;;
52456;SDS011;38369;52.840;7.082;2023-12-20T14:23:15;12.73;;;2.30;;
52456;SDS011;38369;52.840;7.082;2023-12-20T14:25:42;9.75;;;2.65;;
52456;SDS011;38369;52.840;7.082;2023-12-20T14:28:08;9.95;;;2.10;;
52456;SDS011;38369;52.840;7.082;2023-12-20T14:30:35;13.25;;;3.10;;
52456;SDS011;38369;52.840;7.082;2023-12-20T14:33:03;14.20;;;2.92;;
52456;SDS011;38369;52.840;7.082;2023-12-20T14:35:29;15.88;;;3.20;;
52456;SDS011;38369;52.840;7.082;2023-12-20T14:37:55;9.35;;;2.70;;
52456;SDS011;38369;52.840;7.082;2023-12-20T14:40:21;14.82;;;4.40;;